Time,TemperatureF,DewpointF,PressureIn,WindDirection,WindDirectionDegrees,WindSpeedMPH,WindSpeedGustMPH,Humidity,HourlyPrecipIn,Conditions,Clouds,dailyrainin,SoftwareType,DateUTC
2013-08-05 00:06:00,67.6,67.3,30.03,NNE,22,0.0,-999.0,99,-99.99,,,0.00,Acu-Link.com,2013-08-05 05:06:00,
2013-08-05 00:21:00,67.3,67.0,30.03,NNW,337,0.0,-999.0,99,-99.99,,,0.00,Acu-Link.com,2013-08-05 05:21:00,
2013-08-05 00:36:00,67.1,66.8,30.03,SSE,157,0.0,-999.0,99,-99.99,,,0.00,Acu-Link.com,2013-08-05 05:36:00,
2013-08-05 00:51:00,67.1,66.8,30.02,SE,135,0.0,-999.0,99,-99.99,,,0.00,Acu-Link.com,2013-08-05 05:51:00,
2013-08-05 01:06:00,67.1,66.8,30.01,ESE,112,0.0,-999.0,99,-99.99,,,0.00,Acu-Link.com,2013-08-05 06:06:00,
2013-08-05 01:21:00,66.6,66.3,30.01,SW,225,0.0,-999.0,99,-99.99,,,0.00,Acu-Link.com,2013-08-05 06:21:00,
2013-08-05 01:37:00,65.7,65.4,30.01,ESE,112,0.0,-999.0,99,-99.99,,,0.00,Acu-Link.com,2013-08-05 06:37:00,
2013-08-05 01:51:00,64.9,64.6,30.02,SSW,202,0.0,-999.0,99,-99.99,,,0.00,Acu-Link.com,2013-08-05 06:51:00,
2013-08-05 02:07:00,64.4,64.1,30.02,SSW,202,0.0,-999.0,99,-99.99,,,0.00,Acu-Link.com,2013-08-05 07:07:00,
2013-08-05 02:22:00,64.4,64.1,30.01,SE,135,0.0,-999.0,99,-99.99,,,0.00,Acu-Link.com,2013-08-05 07:22:00,
2013-08-05 02:37:00,63.7,63.4,30.02,SSW,202,0.0,-999.0,99,-99.99,,,0.00,Acu-Link.com,2013-08-05 07:37:00,
2013-08-05 02:52:00,63.5,63.2,30.02,East,90,0.0,-999.0,99,-99.99,,,0.00,Acu-Link.com,2013-08-05 07:52:00,
2013-08-05 03:08:00,63.5,63.2,30.01,NNW,337,0.0,-999.0,99,-99.99,,,0.00,Acu-Link.com,2013-08-05 08:08:00,
2013-08-05 03:24:00,63.3,63.0,30.01,SSE,157,0.0,-999.0,99,-99.99,,,0.00,Acu-Link.com,2013-08-05 08:24:00,
2013-08-05 03:39:00,62.6,62.3,30.01,SSW,202,0.0,-999.0,99,-99.99,,,0.00,Acu-Link.com,2013-08-05 08:39:00,
2013-08-05 03:54:00,62.2,61.9,30.00,ESE,112,0.0,-999.0,99,-99.99,,,0.00,Acu-Link.com,2013-08-05 08:54:00,
2013-08-05 04:09:00,62.1,61.8,29.99,ESE,112,0.0,-999.0,99,-99.99,,,0.00,Acu-Link.com,2013-08-05 09:09:00,
2013-08-05 04:25:00,61.9,61.6,29.99,ESE,112,0.0,-999.0,99,-99.99,,,0.00,Acu-Link.com,2013-08-05 09:25:00,
2013-08-05 04:40:00,61.9,61.6,29.98,SSE,157,0.0,-999.0,99,-99.99,,,0.00,Acu-Link.com,2013-08-05 09:40:00,
2013-08-05 04:55:00,61.5,61.2,29.98,ESE,112,0.0,-999.0,99,-99.99,,,0.00,Acu-Link.com,2013-08-05 09:55:00,
2013-08-05 05:10:00,61.7,61.4,29.98,SE,135,0.0,-999.0,99,-99.99,,,0.00,Acu-Link.com,2013-08-05 10:10:00,
2013-08-05 05:25:00,61.7,61.4,29.98,ESE,112,0.0,-999.0,99,-99.99,,,0.00,Acu-Link.com,2013-08-05 10:25:00,
2013-08-05 05:40:00,61.9,61.6,29.99,East,90,0.0,-999.0,99,-99.99,,,0.00,Acu-Link.com,2013-08-05 10:40:00,
2013-08-05 05:55:00,61.9,61.6,29.99,SE,135,0.0,-999.0,99,-99.99,,,0.00,Acu-Link.com,2013-08-05 10:55:00,
2013-08-05 06:26:00,62.6,62.3,30.00,NE,45,0.0,-999.0,99,-99.99,,,0.00,Acu-Link.com,2013-08-05 11:26:00,
2013-08-05 06:40:00,62.8,62.5,30.00,ESE,112,0.0,-999.0,99,-99.99,,,0.00,Acu-Link.com,2013-08-05 11:40:00,
2013-08-05 06:55:00,64.6,64.3,30.00,ESE,112,1.7,-999.0,99,-99.99,,,0.00,Acu-Link.com,2013-08-05 11:55:00,
2013-08-05 07:11:00,65.1,64.8,30.00,East,90,0.0,-999.0,99,-99.99,,,0.00,Acu-Link.com,2013-08-05 12:11:00,
2013-08-05 07:56:00,67.1,66.8,29.99,SSW,202,0.0,-999.0,99,-99.99,,,0.00,Acu-Link.com,2013-08-05 12:56:00,
2013-08-05 08:11:00,68.0,67.7,29.99,ESE,112,1.7,-999.0,99,-99.99,,,0.00,Acu-Link.com,2013-08-05 13:11:00,
2013-08-05 08:26:00,74.3,74.0,29.99,ESE,112,0.0,-999.0,99,-99.99,,,0.00,Acu-Link.com,2013-08-05 13:26:00,
2013-08-05 08:42:00,74.3,70.2,29.99,South,180,2.2,-999.0,87,-99.99,,,0.00,Acu-Link.com,2013-08-05 13:42:00,
2013-08-05 08:56:00,75.2,69.7,29.98,SSE,157,1.7,-999.0,83,-99.99,,,0.00,Acu-Link.com,2013-08-05 13:56:00,
2013-08-05 09:12:00,74.3,69.1,29.98,ESE,112,0.0,-999.0,84,-99.99,,,0.00,Acu-Link.com,2013-08-05 14:12:00,
2013-08-05 09:27:00,74.7,68.5,29.98,SSE,157,1.7,-999.0,81,-99.99,,,0.00,Acu-Link.com,2013-08-05 14:27:00,
2013-08-05 09:57:00,75.4,69.2,29.98,South,180,2.2,-999.0,81,-99.99,,,0.00,Acu-Link.com,2013-08-05 14:57:00,
2013-08-05 10:27:00,76.3,67.8,29.98,SSE,157,2.2,-999.0,75,-99.99,,,0.00,Acu-Link.com,2013-08-05 15:27:00,
2013-08-05 10:57:00,76.1,69.1,29.97,SE,135,1.1,-999.0,79,-99.99,,,0.00,Acu-Link.com,2013-08-05 15:57:00,
2013-08-05 11:13:00,78.8,69.4,29.97,South,180,0.0,-999.0,73,-99.99,,,0.00,Acu-Link.com,2013-08-05 16:13:00,
2013-08-05 11:27:00,78.4,69.8,29.97,SSW,202,2.2,-999.0,75,-99.99,,,0.00,Acu-Link.com,2013-08-05 16:27:00,
2013-08-05 11:58:00,76.3,71.8,29.98,SW,225,2.7,-999.0,86,-99.99,,,0.00,Acu-Link.com,2013-08-05 16:58:00,
2013-08-05 12:13:00,72.7,72.4,29.97,South,180,3.7,-999.0,99,-99.99,,,0.00,Acu-Link.com,2013-08-05 17:13:00,
2013-08-05 12:28:00,71.8,71.5,29.98,SSW,202,3.2,-999.0,99,-99.99,,,0.01,Acu-Link.com,2013-08-05 17:28:00,
2013-08-05 12:58:00,70.0,69.7,29.97,SSE,157,0.0,-999.0,99,-99.99,,,0.11,Acu-Link.com,2013-08-05 17:58:00,
2013-08-05 13:14:00,69.1,68.8,29.98,South,180,2.7,-999.0,99,-99.99,,,0.15,Acu-Link.com,2013-08-05 18:14:00,
2013-08-05 13:44:00,67.6,67.3,29.97,ESE,112,0.0,-999.0,99,-99.99,,,0.28,Acu-Link.com,2013-08-05 18:44:00,
2013-08-05 14:14:00,67.8,67.5,29.95,SSE,157,2.7,-999.0,99,-99.99,,,0.35,Acu-Link.com,2013-08-05 19:14:00,
2013-08-05 14:29:00,68.9,68.6,29.94,SE,135,1.7,-999.0,99,-99.99,,,0.36,Acu-Link.com,2013-08-05 19:29:00,
2013-08-05 14:44:00,69.1,68.8,29.94,SSE,157,1.1,-999.0,99,-99.99,,,0.36,Acu-Link.com,2013-08-05 19:44:00,
2013-08-05 14:59:00,69.3,69.0,29.93,South,180,1.1,-999.0,99,-99.99,,,0.36,Acu-Link.com,2013-08-05 19:59:00,
2013-08-05 15:14:00,69.6,69.3,29.91,SSE,157,2.2,-999.0,99,-99.99,,,0.36,Acu-Link.com,2013-08-05 20:14:00,
2013-08-05 15:30:00,70.0,69.7,29.91,SE,135,0.0,-999.0,99,-99.99,,,0.36,Acu-Link.com,2013-08-05 20:30:00,
2013-08-05 15:45:00,69.4,69.1,29.90,SSE,157,0.0,-999.0,99,-99.99,,,0.36,Acu-Link.com,2013-08-05 20:45:00,
2013-08-05 16:00:00,70.0,69.7,29.90,NE,45,1.7,-999.0,99,-99.99,,,0.36,Acu-Link.com,2013-08-05 21:00:00,
2013-08-05 16:30:00,72.1,71.8,29.89,South,180,1.1,-999.0,99,-99.99,,,0.36,Acu-Link.com,2013-08-05 21:30:00,
2013-08-05 16:45:00,72.0,71.7,29.89,South,180,1.7,-999.0,99,-99.99,,,0.36,Acu-Link.com,2013-08-05 21:45:00,
2013-08-05 17:15:00,74.5,74.2,29.89,South,180,0.0,-999.0,99,-99.99,,,0.36,Acu-Link.com,2013-08-05 22:15:00,
2013-08-05 17:30:00,74.7,74.4,29.88,South,180,1.7,-999.0,99,-99.99,,,0.36,Acu-Link.com,2013-08-05 22:30:00,
2013-08-05 18:01:00,74.1,73.8,29.86,SSE,157,3.2,-999.0,99,-99.99,,,0.36,Acu-Link.com,2013-08-05 23:01:00,
2013-08-05 18:16:00,73.8,73.5,29.86,SSE,157,2.7,-999.0,99,-99.99,,,0.36,Acu-Link.com,2013-08-05 23:16:00,
2013-08-05 18:46:00,73.0,72.7,29.85,SSW,202,2.2,-999.0,99,-99.99,,,0.36,Acu-Link.com,2013-08-05 23:46:00,
2013-08-05 20:17:00,70.9,70.6,29.85,South,180,1.1,-999.0,99,-99.99,,,0.36,Acu-Link.com,2013-08-06 01:17:00,
2013-08-05 20:32:00,70.7,70.4,29.85,SSE,157,0.0,-999.0,99,-99.99,,,0.36,Acu-Link.com,2013-08-06 01:32:00,
2013-08-05 20:47:00,70.5,70.2,29.86,SE,135,1.1,-999.0,99,-99.99,,,0.36,Acu-Link.com,2013-08-06 01:47:00,
2013-08-05 21:32:00,70.3,70.0,29.87,South,180,0.0,-999.0,99,-99.99,,,0.36,Acu-Link.com,2013-08-06 02:32:00,
2013-08-05 21:48:00,70.3,70.0,29.87,SSE,157,0.0,-999.0,99,-99.99,,,0.36,Acu-Link.com,2013-08-06 02:48:00,
2013-08-05 22:03:00,70.3,70.0,29.87,SSE,157,2.2,-999.0,99,-99.99,,,0.36,Acu-Link.com,2013-08-06 03:03:00,
2013-08-05 22:33:00,70.2,69.9,29.87,SW,225,0.0,-999.0,99,-99.99,,,0.36,Acu-Link.com,2013-08-06 03:33:00,
2013-08-05 22:48:00,70.2,69.9,29.86,SE,135,1.7,-999.0,99,-99.99,,,0.36,Acu-Link.com,2013-08-06 03:48:00,
2013-08-05 23:03:00,70.3,70.0,29.85,South,180,0.0,-999.0,99,-99.99,,,0.36,Acu-Link.com,2013-08-06 04:03:00,
2013-08-05 23:18:00,70.2,69.9,29.85,SE,135,0.0,-999.0,99,-99.99,,,0.36,Acu-Link.com,2013-08-06 04:18:00,
2013-08-05 23:33:00,70.2,69.9,29.85,SSW,202,0.0,-999.0,99,-99.99,,,0.36,Acu-Link.com,2013-08-06 04:33:00,
2013-08-05 23:48:00,70.2,69.9,29.85,SSE,157,0.0,-999.0,99,-99.99,,,0.36,Acu-Link.com,2013-08-06 04:48:00,